createdAt,value
2022-10-08T00:00:15.221Z,68.01
2022-10-08T00:01:15.440Z,67.80
2022-10-08T00:02:15.611Z,67.69
2022-10-08T00:03:15.750Z,67.19
2022-10-08T00:04:15.981Z,66.99
2022-10-08T00:05:16.079Z,67.19
2022-10-08T00:06:16.253Z,67.08
2022-10-08T00:07:16.411Z,68.01
2022-10-08T00:08:16.571Z,67.69
2022-10-08T00:09:16.750Z,67.19
2022-10-08T00:10:16.903Z,68.01
2022-10-08T00:11:17.110Z,68.01
2022-10-08T00:12:17.261Z,67.49
2022-10-08T00:13:17.460Z,67.69
2022-10-08T00:14:17.621Z,68.51
2022-10-08T00:15:17.782Z,68.10
2022-10-08T00:16:18.051Z,67.60
2022-10-08T00:17:18.120Z,67.80
2022-10-08T00:18:18.280Z,67.60
2022-10-08T00:19:18.440Z,67.29
2022-10-08T00:20:18.591Z,68.10
2022-10-08T00:21:18.800Z,68.10
2022-10-08T00:22:18.960Z,66.99
2022-10-08T00:23:19.160Z,67.19
2022-10-08T00:24:19.310Z,67.69
2022-10-08T00:25:19.478Z,67.19
2022-10-08T00:26:19.650Z,67.80
2022-10-08T00:27:19.820Z,67.73
2022-10-08T00:28:20.026Z,67.83
2022-10-08T00:29:20.160Z,67.93
2022-10-08T00:30:20.330Z,67.22
2022-10-08T00:31:20.555Z,67.43
2022-10-08T00:32:20.663Z,67.43
2022-10-08T00:33:20.831Z,67.22
2022-10-08T00:34:21.014Z,67.93
2022-10-08T00:35:21.179Z,67.73
2022-10-08T00:36:21.369Z,68.65
2022-10-08T00:37:21.541Z,68.13
2022-10-08T00:38:21.711Z,68.44
2022-10-08T00:39:21.906Z,67.43
2022-10-08T00:40:22.060Z,67.22
2022-10-08T00:41:22.249Z,67.32
2022-10-08T00:42:22.389Z,67.43
2022-10-08T00:43:25.967Z,67.22
2022-10-08T00:44:22.741Z,67.12
2022-10-08T00:45:22.947Z,68.13
2022-10-08T00:46:23.109Z,68.04
2022-10-08T00:47:23.281Z,68.24
2022-10-08T00:48:23.448Z,68.54
2022-10-08T00:49:23.629Z,68.95
2022-10-08T00:50:23.791Z,68.44
2022-10-08T00:51:23.971Z,68.04
2022-10-08T00:52:24.100Z,68.34
2022-10-08T00:53:24.259Z,68.34
2022-10-08T00:54:24.418Z,68.34
2022-10-08T00:55:24.588Z,68.24
2022-10-08T00:56:24.771Z,67.63
2022-10-08T00:57:24.920Z,68.13
2022-10-08T00:58:25.088Z,68.13
2022-10-08T00:59:25.247Z,67.73
2022-10-08T01:00:25.426Z,67.83
2022-10-08T01:01:25.665Z,67.12
2022-10-08T01:02:25.826Z,68.04
2022-10-08T01:03:25.968Z,68.04
2022-10-08T01:04:26.143Z,67.52
2022-10-08T01:05:26.298Z,67.83
2022-10-08T01:06:26.479Z,68.44
2022-10-08T01:07:26.616Z,67.32
2022-10-08T01:08:26.799Z,68.75
2022-10-08T01:09:26.958Z,68.13
2022-10-08T01:10:27.129Z,69.67
2022-10-08T01:11:27.332Z,69.46
2022-10-08T01:12:27.478Z,69.56
2022-10-08T01:13:27.653Z,68.95
2022-10-08T01:14:27.801Z,67.93
2022-10-08T01:15:27.961Z,68.44
2022-10-08T01:16:28.170Z,68.54
2022-10-08T01:17:28.277Z,68.44
2022-10-08T01:18:28.438Z,68.13
2022-10-08T01:19:28.597Z,68.24
2022-10-08T01:20:28.796Z,69.15
2022-10-08T01:21:28.968Z,68.34
2022-10-08T01:22:29.146Z,68.54
2022-10-08T01:23:29.298Z,68.44
2022-10-08T01:24:29.467Z,69.97
2022-10-08T01:25:29.628Z,69.76
2022-10-08T01:26:29.809Z,69.67
2022-10-08T01:27:29.969Z,69.32
2022-10-08T01:28:30.251Z,68.92
2022-10-08T01:29:30.328Z,69.43
2022-10-08T01:30:30.488Z,69.93
2022-10-08T01:31:30.734Z,68.92
2022-10-08T01:32:30.815Z,69.53
2022-10-08T01:33:30.969Z,69.63
2022-10-08T01:34:31.169Z,69.32
2022-10-08T01:35:31.319Z,68.82
2022-10-08T01:36:31.529Z,69.53
2022-10-08T01:37:31.687Z,69.84
2022-10-08T01:38:31.850Z,68.92
2022-10-08T01:39:32.008Z,70.04
2022-10-08T01:40:32.167Z,70.55
2022-10-08T01:41:32.365Z,69.84
2022-10-08T01:42:32.527Z,69.80
2022-10-08T01:43:32.679Z,70.21
2022-10-08T01:44:32.876Z,70.62
2022-10-08T01:45:33.130Z,69.40
2022-10-08T01:46:33.207Z,69.09
2022-10-08T01:47:33.367Z,71.02
2022-10-08T01:48:33.527Z,69.40
2022-10-08T01:49:33.692Z,69.60
2022-10-08T01:50:33.897Z,70.10
2022-10-08T01:51:34.067Z,70.10
2022-10-08T01:52:34.229Z,69.87
2022-10-08T01:53:34.394Z,69.77
2022-10-08T01:54:34.581Z,70.68
2022-10-08T01:55:34.767Z,69.57
2022-10-08T01:56:34.907Z,69.26
2022-10-08T01:57:35.068Z,69.77
2022-10-08T01:58:35.236Z,69.16
2022-10-08T01:59:35.387Z,69.16
2022-10-08T02:00:35.587Z,69.57
2022-10-08T02:01:35.800Z,69.87
2022-10-08T02:02:35.987Z,69.36
2022-10-08T02:03:36.116Z,69.87
2022-10-08T02:04:36.276Z,70.38
2022-10-08T02:05:36.456Z,69.36
2022-10-08T02:06:36.617Z,69.67
2022-10-08T02:07:36.777Z,69.36
2022-10-08T02:08:36.966Z,69.77
2022-10-08T02:09:37.128Z,69.26
2022-10-08T02:10:37.306Z,69.57
2022-10-08T02:11:37.466Z,70.07
2022-10-08T02:12:37.627Z,69.57
2022-10-08T02:13:37.794Z,69.46
2022-10-08T02:14:37.953Z,69.87
2022-10-08T02:15:38.136Z,69.46
2022-10-08T02:16:38.316Z,68.92
2022-10-08T02:17:38.458Z,68.72
2022-10-08T02:18:38.617Z,68.52
2022-10-08T02:19:38.787Z,68.62
2022-10-08T02:20:38.966Z,69.43
2022-10-08T02:21:39.126Z,69.23
2022-10-08T02:22:39.287Z,69.94
2022-10-08T02:23:39.446Z,70.45
2022-10-08T02:24:39.607Z,69.64
2022-10-08T02:25:39.788Z,69.33
2022-10-08T02:26:39.963Z,68.92
2022-10-08T02:27:40.115Z,69.13
2022-10-08T02:28:40.302Z,69.02
2022-10-08T02:29:40.456Z,68.92
2022-10-08T02:30:40.678Z,68.92
2022-10-08T02:31:40.945Z,69.13
2022-10-08T02:32:41.025Z,68.62
2022-10-08T02:33:41.177Z,69.13
2022-10-08T02:34:41.338Z,69.13
2022-10-08T02:35:41.547Z,68.72
2022-10-08T02:36:41.676Z,69.33
2022-10-08T02:37:41.835Z,68.82
2022-10-08T02:38:41.995Z,68.82
2022-10-08T02:39:42.159Z,69.02
2022-10-08T02:40:42.346Z,68.92
2022-10-08T02:41:42.505Z,69.43
2022-10-08T02:42:42.665Z,69.53
2022-10-08T02:43:42.828Z,69.02
2022-10-08T02:44:43.007Z,68.82
2022-10-08T02:45:43.236Z,69.13
2022-10-08T02:46:43.326Z,68.72
2022-10-08T02:47:43.485Z,69.23
2022-10-08T02:48:43.685Z,69.13
2022-10-08T02:49:43.845Z,69.02
2022-10-08T02:50:44.034Z,68.72
2022-10-08T02:51:44.190Z,69.02
2022-10-08T02:52:44.650Z,68.92
2022-10-08T02:53:44.566Z,69.43
2022-10-08T02:54:44.731Z,70.14
2022-10-08T02:55:44.898Z,69.94
2022-10-08T02:56:45.056Z,70.86
2022-10-08T02:57:45.215Z,70.04
2022-10-08T02:58:45.414Z,69.33
2022-10-08T02:59:45.573Z,70.14
2022-10-08T03:00:45.778Z,69.74
2022-10-08T03:01:45.935Z,69.43
2022-10-08T03:02:46.597Z,70.45
2022-10-08T03:03:46.285Z,70.04
2022-10-08T03:04:46.484Z,69.84
2022-10-08T03:05:46.657Z,69.64
2022-10-08T03:06:46.823Z,69.53
2022-10-08T03:07:46.975Z,69.43
2022-10-08T03:08:47.166Z,69.43
2022-10-08T03:09:47.368Z,69.09
2022-10-08T03:10:47.531Z,68.99
2022-10-08T03:11:47.684Z,69.50
2022-10-08T03:12:48.152Z,69.30
2022-10-08T03:13:48.037Z,69.70
2022-10-08T03:14:48.242Z,69.30
2022-10-08T03:15:48.375Z,69.40
2022-10-08T03:16:48.642Z,68.99
2022-10-08T03:17:48.706Z,68.89
2022-10-08T03:18:48.905Z,68.99
2022-10-08T03:19:49.074Z,69.20
2022-10-08T03:20:49.235Z,69.60
2022-10-08T03:21:49.394Z,69.91
2022-10-08T03:22:49.836Z,70.31
2022-10-08T03:23:49.723Z,69.30
2022-10-08T03:24:53.718Z,69.81
2022-10-08T03:25:51.048Z,69.40
2022-10-08T03:26:50.242Z,69.70
2022-10-08T03:27:50.394Z,69.20
2022-10-08T03:28:50.554Z,70.01
2022-10-08T03:29:50.732Z,69.70
2022-10-08T03:30:50.976Z,69.60
2022-10-08T03:31:51.065Z,70.21
2022-10-08T03:32:51.224Z,70.11
2022-10-08T03:33:51.384Z,70.11
2022-10-08T03:34:51.594Z,69.70
2022-10-08T03:35:51.751Z,70.01
2022-10-08T03:36:51.944Z,69.87
2022-10-08T03:37:52.104Z,69.87
2022-10-08T03:38:52.272Z,69.78
2022-10-08T03:39:52.444Z,69.47
2022-10-08T03:40:52.613Z,69.37
2022-10-08T03:41:52.763Z,69.37
2022-10-08T03:42:52.956Z,69.67
2022-10-08T03:43:53.114Z,69.98
2022-10-08T03:44:53.294Z,69.47
2022-10-08T03:45:53.508Z,69.54
2022-10-08T03:46:53.646Z,69.64
2022-10-08T03:47:53.805Z,69.74
2022-10-08T03:48:54.004Z,70.45
2022-10-08T03:49:54.184Z,69.74
2022-10-08T03:50:54.345Z,69.95
2022-10-08T03:51:54.505Z,70.15
2022-10-08T03:52:54.676Z,69.13
2022-10-08T03:53:54.840Z,69.23
2022-10-08T03:54:55.020Z,69.03
2022-10-08T03:55:55.175Z,69.84
2022-10-08T03:56:55.339Z,69.43
2022-10-08T03:57:55.493Z,69.03
2022-10-08T03:58:55.654Z,69.40
2022-10-08T03:59:55.834Z,69.40
2022-10-08T04:00:56.016Z,69.40
2022-10-08T04:01:56.235Z,69.10
2022-10-08T04:02:56.472Z,69.10
2022-10-08T04:03:56.549Z,69.10
2022-10-08T04:04:56.724Z,69.00
2022-10-08T04:05:56.885Z,68.70
2022-10-08T04:06:57.080Z,68.70
2022-10-08T04:07:57.235Z,68.79
2022-10-08T04:08:57.393Z,68.39
2022-10-08T04:09:57.567Z,68.39
2022-10-08T04:10:57.723Z,69.71
2022-10-08T04:11:57.885Z,68.90
2022-10-08T04:12:58.046Z,68.83
2022-10-08T04:13:58.204Z,68.83
2022-10-08T04:14:58.382Z,69.03
2022-10-08T04:15:58.581Z,68.52
2022-10-08T04:16:58.714Z,69.03
2022-10-08T04:17:58.877Z,69.54
2022-10-08T04:18:59.045Z,68.93
2022-10-08T04:19:59.214Z,69.23
2022-10-08T04:20:59.384Z,68.83
2022-10-08T04:21:59.540Z,69.03
2022-10-08T04:22:59.701Z,68.83
2022-10-08T04:23:59.853Z,68.83
2022-10-08T04:25:00.070Z,68.93
2022-10-08T04:26:00.224Z,69.74
2022-10-08T04:27:00.384Z,69.13
2022-10-08T04:28:00.570Z,69.34
2022-10-08T04:29:00.734Z,69.34
2022-10-08T04:30:00.893Z,69.34
2022-10-08T04:31:01.102Z,69.23
2022-10-08T04:32:01.236Z,69.34
2022-10-08T04:33:01.394Z,69.34
2022-10-08T04:34:01.587Z,69.84
2022-10-08T04:35:01.743Z,69.74
2022-10-08T04:36:01.910Z,69.23
2022-10-08T04:37:02.061Z,69.54
2022-10-08T04:38:02.214Z,69.23
2022-10-08T04:39:02.423Z,69.54
2022-10-08T04:40:02.592Z,70.35
2022-10-08T04:41:02.754Z,70.15
2022-10-08T04:42:02.919Z,69.74
2022-10-08T04:43:03.072Z,69.84
2022-10-08T04:44:03.253Z,69.57
2022-10-08T04:45:03.413Z,69.67
2022-10-08T04:46:03.642Z,69.54
2022-10-08T04:47:03.743Z,69.67
2022-10-08T04:48:03.902Z,70.08
2022-10-08T04:49:04.085Z,69.87
2022-10-08T04:50:04.244Z,70.18
2022-10-08T04:51:09.380Z,69.87
2022-10-08T04:52:05.594Z,70.38
2022-10-08T04:53:04.781Z,69.37
2022-10-08T04:54:04.954Z,70.18
2022-10-08T04:55:05.213Z,70.18
2022-10-08T04:56:05.304Z,69.98
2022-10-08T04:57:05.486Z,69.98
2022-10-08T04:58:05.634Z,70.28
2022-10-08T04:59:05.815Z,69.98
2022-10-08T05:00:18.377Z,70.01
2022-10-08T05:01:07.132Z,70.31
2022-10-08T05:02:06.372Z,70.11
2022-10-08T05:03:06.549Z,70.31
2022-10-08T05:04:06.662Z,70.42
2022-10-08T05:05:06.803Z,70.62
2022-10-08T05:06:06.983Z,70.72
2022-10-08T05:07:07.174Z,70.52
2022-10-08T05:08:07.352Z,70.11
2022-10-08T05:09:07.624Z,69.91
2022-10-08T05:10:07.717Z,70.42
2022-10-08T05:11:07.892Z,71.12
2022-10-08T05:12:08.073Z,70.92
2022-10-08T05:13:08.253Z,71.33
2022-10-08T05:14:08.452Z,71.64
2022-10-08T05:15:08.611Z,71.33
2022-10-08T05:16:08.875Z,72.25
2022-10-08T05:17:08.964Z,70.82
2022-10-08T05:18:09.153Z,70.82
2022-10-08T05:19:09.322Z,71.03
2022-10-08T05:20:09.504Z,70.72
2022-10-08T05:21:09.674Z,71.64
2022-10-08T05:22:09.853Z,70.92
2022-10-08T05:23:10.033Z,71.23
2022-10-08T05:24:10.231Z,70.48
2022-10-08T05:25:10.375Z,70.18
2022-10-08T05:26:10.553Z,70.48
2022-10-08T05:27:10.742Z,70.48
2022-10-08T05:28:10.950Z,70.48
2022-10-08T05:29:11.142Z,70.89
2022-10-08T05:30:11.289Z,70.89
2022-10-08T05:31:11.510Z,71.09
2022-10-08T05:32:11.634Z,70.38
2022-10-08T05:33:11.781Z,70.79
2022-10-08T05:34:11.979Z,70.38
2022-10-08T05:35:12.112Z,70.99
2022-10-08T05:36:12.302Z,70.48
2022-10-08T05:37:12.463Z,70.18
2022-10-08T05:38:12.653Z,70.59
2022-10-08T05:39:12.823Z,70.79
2022-10-08T05:40:12.964Z,70.68
2022-10-08T05:41:13.152Z,71.50
2022-10-08T05:42:13.332Z,70.68
2022-10-08T05:43:13.512Z,71.09
2022-10-08T05:44:13.742Z,70.28
2022-10-08T05:45:13.892Z,70.89
2022-10-08T05:46:14.091Z,70.28
2022-10-08T05:47:14.197Z,70.68
2022-10-08T05:48:14.369Z,71.09
2022-10-08T05:49:14.564Z,71.09
2022-10-08T05:50:14.723Z,70.48
2022-10-08T05:51:14.902Z,70.89
2022-10-08T05:52:15.072Z,70.59
2022-10-08T05:53:15.251Z,70.59
2022-10-08T05:54:15.442Z,70.59
2022-10-08T05:55:15.622Z,71.06
2022-10-08T05:56:15.822Z,70.18
2022-10-08T05:57:15.982Z,70.35
2022-10-08T05:58:16.182Z,70.76
2022-10-08T05:59:16.354Z,70.35
2022-10-08T06:00:16.524Z,69.95
2022-10-08T06:01:16.686Z,70.45
2022-10-08T06:02:16.842Z,70.25
2022-10-08T06:03:16.992Z,69.64
2022-10-08T06:04:17.273Z,69.95
2022-10-08T06:05:17.372Z,69.74
2022-10-08T06:06:17.563Z,70.04
2022-10-08T06:07:17.772Z,70.25
2022-10-08T06:08:17.925Z,69.95
2022-10-08T06:09:18.116Z,69.54
2022-10-08T06:10:18.271Z,69.95
2022-10-08T06:11:18.421Z,69.84
2022-10-08T06:12:18.581Z,69.95
2022-10-08T06:13:18.761Z,70.15
2022-10-08T06:14:18.952Z,70.25
2022-10-08T06:15:19.111Z,70.04
2022-10-08T06:16:19.339Z,69.54
2022-10-08T06:17:19.462Z,69.95
2022-10-08T06:18:19.625Z,69.95
2022-10-08T06:19:19.802Z,69.95
2022-10-08T06:20:19.970Z,70.45
2022-10-08T06:21:20.136Z,70.76
2022-10-08T06:22:20.312Z,69.95
2022-10-08T06:23:20.477Z,69.64
2022-10-08T06:24:20.681Z,70.15
2022-10-08T06:25:20.791Z,70.25
2022-10-08T06:26:20.970Z,70.76
2022-10-08T06:27:21.151Z,70.35
2022-10-08T06:28:21.364Z,70.55
2022-10-08T06:29:21.501Z,70.96
2022-10-08T06:30:21.659Z,70.55
2022-10-08T06:31:21.866Z,69.95
2022-10-08T06:32:22.009Z,70.65
2022-10-08T06:33:22.190Z,70.86
2022-10-08T06:34:22.435Z,70.25
2022-10-08T06:35:22.552Z,70.35
2022-10-08T06:36:22.731Z,70.76
2022-10-08T06:37:22.914Z,70.35
2022-10-08T06:38:23.091Z,70.55
2022-10-08T06:39:23.290Z,70.21
2022-10-08T06:40:23.442Z,70.11
2022-10-08T06:41:23.599Z,70.72
2022-10-08T06:42:23.779Z,70.92
2022-10-08T06:43:23.930Z,70.42
2022-10-08T06:44:24.122Z,70.11
2022-10-08T06:45:24.271Z,70.72
2022-10-08T06:46:24.513Z,70.21
2022-10-08T06:47:24.612Z,70.72
2022-10-08T06:48:24.810Z,70.92
2022-10-08T06:49:24.962Z,70.39
2022-10-08T06:50:25.140Z,70.39
2022-10-08T06:51:25.320Z,70.59
2022-10-08T06:52:25.512Z,69.98
2022-10-08T06:53:25.702Z,70.08
2022-10-08T06:54:25.853Z,70.28
2022-10-08T06:55:26.001Z,69.74
2022-10-08T06:56:26.190Z,69.74
2022-10-08T06:57:26.376Z,70.35
2022-10-08T06:58:26.560Z,69.84
2022-10-08T06:59:26.740Z,70.05
2022-10-08T07:00:26.965Z,70.45
2022-10-08T07:01:31.950Z,70.65
2022-10-08T07:02:28.335Z,70.56
2022-10-08T07:03:27.431Z,70.65
2022-10-08T07:04:27.592Z,70.56
2022-10-08T07:05:27.758Z,70.76
2022-10-08T07:06:27.940Z,70.25
2022-10-08T07:07:28.136Z,70.12
2022-10-08T07:08:28.310Z,69.92
2022-10-08T07:09:28.450Z,69.81
2022-10-08T07:10:33.125Z,69.71
2022-10-08T07:11:29.797Z,69.31
2022-10-08T07:12:28.981Z,69.51
2022-10-08T07:13:29.181Z,69.61
2022-10-08T07:14:29.371Z,69.37
2022-10-08T07:15:29.531Z,69.07
2022-10-08T07:16:29.790Z,68.97
2022-10-08T07:17:29.899Z,68.87
2022-10-08T07:18:30.104Z,68.73
2022-10-08T07:19:30.271Z,68.53
2022-10-08T07:20:30.451Z,68.33
2022-10-08T07:21:30.643Z,67.99
2022-10-08T07:22:30.831Z,67.79
2022-10-08T07:23:31.011Z,67.25
2022-10-08T07:24:31.165Z,66.41
2022-10-08T07:25:31.341Z,65.24
2022-10-08T07:26:31.535Z,64.10
2022-10-08T07:27:31.710Z,63.56
2022-10-08T07:28:31.965Z,62.76
2022-10-08T07:29:32.051Z,63.16
2022-10-08T07:30:32.241Z,63.16
2022-10-08T07:31:32.517Z,63.49
2022-10-08T07:32:32.581Z,63.59
2022-10-08T07:33:32.778Z,63.39
2022-10-08T07:34:32.920Z,62.96
2022-10-08T07:35:33.120Z,63.06
2022-10-08T07:36:33.272Z,62.12
2022-10-08T07:37:33.460Z,61.61
2022-10-08T07:38:33.669Z,61.72
2022-10-08T07:39:33.811Z,61.59
2022-10-08T07:40:33.999Z,61.56
2022-10-08T07:41:34.180Z,60.63
2022-10-08T07:42:34.368Z,58.98
2022-10-08T07:43:34.569Z,58.95
2022-10-08T07:44:34.712Z,58.45
2022-10-08T07:45:34.936Z,58.42
2022-10-08T07:46:35.077Z,58.12
2022-10-08T07:47:35.251Z,57.72
2022-10-08T07:48:35.452Z,57.90
2022-10-08T07:49:35.628Z,57.29
2022-10-08T07:50:35.766Z,57.37
2022-10-08T07:51:35.941Z,57.46
2022-10-08T07:52:36.150Z,56.56
2022-10-08T07:53:36.302Z,57.17
2022-10-08T07:54:36.441Z,55.99
2022-10-08T07:55:36.636Z,56.09
2022-10-08T07:56:36.823Z,56.49
2022-10-08T07:57:37.057Z,55.55
2022-10-08T07:58:37.172Z,56.16
2022-10-08T07:59:37.322Z,55.43
2022-10-08T08:00:37.540Z,55.33
2022-10-08T08:01:37.673Z,54.90
2022-10-08T08:02:37.908Z,54.25
2022-10-08T08:03:38.005Z,52.89
2022-10-08T08:04:38.181Z,51.04
2022-10-08T08:05:38.324Z,50.82
2022-10-08T08:06:38.504Z,49.97
2022-10-08T08:07:38.683Z,48.40
2022-10-08T08:08:38.842Z,47.03
2022-10-08T08:09:38.992Z,45.08
2022-10-08T08:10:39.172Z,44.24
2022-10-08T08:11:39.342Z,42.88
2022-10-08T08:12:39.555Z,41.66
2022-10-08T08:13:39.683Z,40.23
2022-10-08T08:14:39.874Z,39.71
2022-10-08T08:15:40.053Z,39.28
2022-10-08T08:16:40.317Z,39.36
2022-10-08T08:17:40.413Z,38.43
2022-10-08T08:18:40.566Z,38.41
2022-10-08T08:19:40.734Z,37.70
2022-10-08T08:20:40.934Z,36.48
2022-10-08T08:21:41.104Z,35.48
2022-10-08T08:22:41.359Z,35.08
2022-10-08T08:23:41.467Z,34.87
2022-10-08T08:24:41.648Z,34.86
2022-10-08T08:25:41.814Z,35.05
2022-10-08T08:26:42.013Z,34.94
2022-10-08T08:27:42.214Z,33.94
2022-10-08T08:28:42.474Z,33.62
2022-10-08T08:29:42.526Z,33.12
2022-10-08T08:30:42.723Z,33.49
2022-10-08T08:31:42.930Z,32.28
2022-10-08T08:32:43.096Z,31.58
2022-10-08T08:33:43.243Z,31.27
2022-10-08T08:34:43.397Z,31.19
2022-10-08T08:35:43.556Z,31.63
2022-10-08T08:36:43.767Z,32.67
2022-10-08T08:37:43.946Z,34.39
2022-10-08T08:38:44.138Z,34.82
2022-10-08T08:39:44.330Z,35.85
2022-10-08T08:40:44.491Z,36.57
2022-10-08T08:41:44.658Z,37.40
2022-10-08T08:42:45.201Z,38.21
2022-10-08T08:43:45.024Z,37.89
2022-10-08T08:44:45.226Z,37.18
2022-10-08T08:45:47.127Z,36.54
2022-10-08T08:46:45.550Z,36.11
2022-10-08T08:47:45.746Z,36.52
2022-10-08T08:48:45.879Z,35.73
2022-10-08T08:49:46.077Z,34.91
2022-10-08T08:50:48.784Z,34.91
2022-10-08T08:51:46.461Z,34.82
2022-10-08T08:52:46.833Z,35.33
2022-10-08T08:53:46.797Z,36.16
2022-10-08T08:54:46.990Z,37.26
2022-10-08T08:55:47.140Z,38.37
2022-10-08T08:56:47.309Z,37.36
2022-10-08T08:57:47.502Z,36.40
2022-10-08T08:58:47.654Z,35.53
2022-10-08T08:59:47.820Z,36.44
2022-10-08T09:00:48.060Z,35.93
2022-10-08T09:01:48.178Z,35.75
2022-10-08T09:02:48.869Z,36.27
2022-10-08T09:03:48.583Z,37.62
2022-10-08T09:04:49.222Z,38.15
2022-10-08T09:05:48.896Z,39.29
2022-10-08T09:06:49.064Z,40.03
2022-10-08T09:07:49.252Z,41.24
2022-10-08T09:08:49.405Z,41.55
2022-10-08T09:09:49.582Z,41.97
2022-10-08T09:10:49.773Z,42.69
2022-10-08T09:11:49.943Z,43.11
2022-10-08T09:12:50.294Z,43.51
2022-10-08T09:13:50.273Z,43.41
2022-10-08T09:14:50.454Z,43.73
2022-10-08T09:15:50.636Z,44.62
2022-10-08T09:16:50.880Z,43.82
2022-10-08T09:17:51.013Z,44.02
2022-10-08T09:18:51.174Z,44.42
2022-10-08T09:19:51.335Z,44.40
2022-10-08T09:20:51.560Z,44.08
2022-10-08T09:21:51.683Z,43.46
2022-10-08T09:22:51.855Z,42.93
2022-10-08T09:23:52.044Z,42.31
2022-10-08T09:24:52.234Z,41.69
2022-10-08T09:25:52.411Z,40.44
2022-10-08T09:26:52.636Z,39.83
2022-10-08T09:27:52.759Z,40.39
2022-10-08T09:28:52.945Z,38.86
2022-10-08T09:29:53.105Z,38.07
2022-10-08T09:30:55.597Z,38.67
2022-10-08T09:31:54.464Z,38.49
2022-10-08T09:32:53.606Z,39.31
2022-10-08T09:33:53.809Z,40.05
2022-10-08T09:34:53.969Z,40.36
2022-10-08T09:35:54.152Z,41.28
2022-10-08T09:36:54.306Z,41.67
2022-10-08T09:37:54.488Z,41.75
2022-10-08T09:38:54.657Z,40.55
2022-10-08T09:39:54.847Z,40.34
2022-10-08T09:40:55.027Z,40.44
2022-10-08T09:41:55.224Z,40.76
2022-10-08T09:42:55.360Z,41.17
2022-10-08T09:43:55.537Z,40.88
2022-10-08T09:44:55.698Z,41.17
2022-10-08T09:45:55.900Z,40.58
2022-10-08T09:46:56.069Z,41.20
2022-10-08T09:47:56.228Z,41.00
2022-10-08T09:48:56.408Z,40.92
2022-10-08T09:49:56.599Z,41.61
2022-10-08T09:50:56.758Z,42.23
2022-10-08T09:51:56.976Z,42.15
2022-10-08T09:52:57.118Z,42.35
2022-10-08T09:53:57.299Z,42.47
2022-10-08T09:54:57.460Z,42.59
2022-10-08T09:55:57.637Z,43.38
2022-10-08T09:56:57.848Z,43.19
2022-10-08T09:57:57.971Z,43.29
2022-10-08T09:58:58.140Z,42.99
2022-10-08T09:59:58.320Z,43.29
2022-10-08T10:00:58.518Z,43.19
2022-10-08T10:01:58.689Z,43.49
2022-10-08T10:02:58.828Z,44.20
2022-10-08T10:03:59.058Z,44.31
2022-10-08T10:04:59.161Z,44.53
2022-10-08T10:05:59.350Z,44.42
2022-10-08T10:06:59.541Z,45.02
2022-10-08T10:07:59.709Z,45.02
2022-10-08T10:08:59.872Z,44.74
2022-10-08T10:10:00.052Z,44.94
2022-10-08T10:11:00.232Z,45.47
2022-10-08T10:12:00.433Z,45.86
2022-10-08T10:13:00.571Z,46.19
2022-10-08T10:14:00.763Z,46.70
2022-10-08T10:15:00.943Z,46.80
2022-10-08T10:16:01.122Z,47.03
2022-10-08T10:17:01.420Z,47.63
2022-10-08T10:18:01.491Z,48.02
2022-10-08T10:19:01.645Z,48.14
2022-10-08T10:20:01.812Z,48.05
2022-10-08T10:21:01.993Z,48.14
2022-10-08T10:22:02.162Z,48.07
2022-10-08T10:23:02.314Z,48.27
2022-10-08T10:24:02.472Z,48.57
2022-10-08T10:25:02.653Z,48.37
2022-10-08T10:26:06.354Z,48.77
2022-10-08T10:27:03.081Z,48.87
2022-10-08T10:28:03.241Z,48.67
2022-10-08T10:29:03.353Z,48.69
2022-10-08T10:30:03.544Z,48.99
2022-10-08T10:31:03.777Z,49.19
2022-10-08T10:32:03.948Z,49.69
2022-10-08T10:33:04.073Z,49.22
2022-10-08T10:34:04.254Z,49.62
2022-10-08T10:35:04.433Z,49.82
2022-10-08T10:36:04.636Z,49.72
2022-10-08T10:37:04.777Z,49.91
2022-10-08T10:38:04.973Z,49.84
2022-10-08T10:39:05.136Z,50.24
2022-10-08T10:40:05.365Z,50.24
2022-10-08T10:41:05.484Z,50.54
2022-10-08T10:42:05.665Z,50.64
2022-10-08T10:43:05.826Z,50.76
2022-10-08T10:44:06.026Z,50.87
2022-10-08T10:45:06.212Z,50.87
2022-10-08T10:46:06.476Z,50.76
2022-10-08T10:47:06.547Z,51.17
2022-10-08T10:48:06.725Z,51.27
2022-10-08T10:49:06.889Z,51.37
2022-10-08T10:50:07.076Z,51.04
2022-10-08T10:51:07.250Z,50.84
2022-10-08T10:52:07.424Z,51.04
2022-10-08T10:53:07.597Z,50.94
2022-10-08T10:54:07.780Z,50.44
2022-10-08T10:55:07.965Z,50.57
2022-10-08T10:56:08.176Z,50.96
2022-10-08T10:57:08.325Z,50.76
2022-10-08T10:58:08.479Z,50.96
2022-10-08T10:59:08.656Z,51.49
2022-10-08T11:00:08.844Z,51.59
2022-10-08T11:01:09.070Z,51.89
2022-10-08T11:02:09.258Z,52.01
2022-10-08T11:03:09.438Z,52.32
2022-10-08T11:04:09.527Z,52.72
2022-10-08T11:05:09.708Z,52.84
2022-10-08T11:06:09.928Z,53.34
2022-10-08T11:07:10.075Z,53.64
2022-10-08T11:08:10.257Z,54.07
2022-10-08T11:09:10.405Z,53.77
2022-10-08T11:10:10.626Z,53.97
2022-10-08T11:11:10.776Z,54.38
2022-10-08T11:12:10.930Z,54.58
2022-10-08T11:13:11.087Z,54.97
2022-10-08T11:14:11.283Z,55.08
2022-10-08T11:15:11.436Z,55.47
2022-10-08T11:16:11.722Z,55.68
2022-10-08T11:17:11.795Z,55.80
2022-10-08T11:18:11.937Z,56.10
2022-10-08T11:19:12.098Z,56.41
2022-10-08T11:20:12.289Z,56.51
2022-10-08T11:21:12.498Z,57.31
2022-10-08T11:22:12.649Z,56.93
2022-10-08T11:23:12.818Z,58.14
2022-10-08T11:24:12.999Z,58.34
2022-10-08T11:25:13.178Z,58.87
2022-10-08T11:26:22.230Z,58.97
2022-10-08T11:27:14.520Z,59.38
2022-10-08T11:28:13.742Z,59.47
2022-10-08T11:29:13.862Z,59.58
2022-10-08T11:30:14.114Z,59.58
2022-10-08T11:31:14.290Z,59.95
2022-10-08T11:32:14.458Z,59.95
2022-10-08T11:33:14.559Z,59.95
2022-10-08T11:34:14.739Z,60.25
2022-10-08T11:35:14.921Z,59.95
2022-10-08T11:36:15.140Z,60.45
2022-10-08T11:37:15.295Z,60.55
2022-10-08T11:38:15.460Z,60.65
2022-10-08T11:39:15.648Z,60.75
2022-10-08T11:40:15.838Z,60.75
2022-10-08T11:41:16.000Z,60.42
2022-10-08T11:42:16.161Z,60.93
2022-10-08T11:43:16.342Z,60.62
2022-10-08T11:44:16.563Z,59.99
2022-10-08T11:45:16.719Z,60.80
2022-10-08T11:46:16.919Z,60.10
2022-10-08T11:47:17.030Z,60.19
2022-10-08T11:48:17.208Z,59.89
2022-10-08T11:49:17.379Z,60.10
2022-10-08T11:50:17.581Z,59.77
2022-10-08T11:51:17.760Z,59.46
2022-10-08T11:52:17.919Z,59.16
2022-10-08T11:53:18.108Z,59.23
2022-10-08T11:54:18.262Z,58.73
2022-10-08T11:55:18.429Z,59.23
2022-10-08T11:56:18.634Z,58.40
2022-10-08T11:57:18.734Z,58.20
2022-10-08T11:58:18.920Z,57.90
2022-10-08T11:59:19.110Z,58.07
2022-10-08T12:00:19.290Z,57.48
2022-10-08T12:01:19.491Z,56.87
2022-10-08T12:02:19.737Z,56.77
2022-10-08T12:03:19.947Z,56.98
2022-10-08T12:04:20.012Z,56.95
2022-10-08T12:05:20.179Z,56.35
2022-10-08T12:06:20.362Z,56.24
2022-10-08T12:07:20.520Z,55.85
2022-10-08T12:08:20.706Z,56.17
2022-10-08T12:09:20.880Z,56.07
2022-10-08T12:10:21.061Z,55.57
2022-10-08T12:11:21.271Z,54.97
2022-10-08T12:12:21.433Z,54.77
2022-10-08T12:13:21.582Z,55.07
2022-10-08T12:14:21.764Z,54.24
2022-10-08T12:15:21.941Z,53.64
2022-10-08T12:16:22.202Z,54.14
2022-10-08T12:17:22.311Z,53.64
2022-10-08T12:18:26.059Z,53.62
2022-10-08T12:19:22.682Z,53.12
2022-10-08T12:20:22.903Z,52.72
2022-10-08T12:21:23.053Z,52.42
2022-10-08T12:22:23.210Z,51.92
2022-10-08T12:23:23.402Z,52.12
2022-10-08T12:24:23.583Z,52.12
2022-10-08T12:25:23.743Z,51.82
2022-10-08T12:26:23.953Z,51.52
2022-10-08T12:27:24.139Z,51.39
2022-10-08T12:28:24.285Z,51.20
2022-10-08T12:29:24.403Z,51.29
2022-10-08T12:30:24.654Z,50.89
2022-10-08T12:31:24.803Z,50.62
2022-10-08T12:32:24.936Z,50.72
2022-10-08T12:33:25.098Z,51.12
2022-10-08T12:34:25.285Z,51.32
2022-10-08T12:35:25.484Z,51.12
2022-10-08T12:36:25.614Z,50.82
2022-10-08T12:37:25.804Z,51.22
2022-10-08T12:38:25.985Z,51.62
2022-10-08T12:39:26.174Z,51.62
2022-10-08T12:40:26.354Z,51.32
2022-10-08T12:41:26.495Z,51.25
2022-10-08T12:42:26.695Z,51.34
2022-10-08T12:43:26.865Z,51.64
2022-10-08T12:44:27.053Z,51.54
2022-10-08T12:45:27.255Z,51.64
2022-10-08T12:46:27.431Z,51.84
2022-10-08T12:47:27.565Z,51.84
2022-10-08T12:48:27.776Z,51.44
2022-10-08T12:49:27.923Z,50.94
2022-10-08T12:50:28.195Z,50.84
2022-10-08T12:51:28.305Z,51.04
2022-10-08T12:52:28.485Z,50.84
2022-10-08T12:53:28.665Z,51.14
2022-10-08T12:54:28.857Z,50.72